sensor_id;sensor_type;location;lat;lon;timestamp;temperature;humidity
44111;DHT22;29774;52.664;5.074;2023-04-03T00:01:36;3.80;74.10
44111;DHT22;29774;52.664;5.074;2023-04-03T00:04:04;3.80;74.10
44111;DHT22;29774;52.664;5.074;2023-04-03T00:06:30;3.80;74.40
44111;DHT22;29774;52.664;5.074;2023-04-03T00:08:56;3.80;74.40
44111;DHT22;29774;52.664;5.074;2023-04-03T00:11:21;3.80;74.50
44111;DHT22;29774;52.664;5.074;2023-04-03T00:13:47;3.80;74.70
44111;DHT22;29774;52.664;5.074;2023-04-03T00:16:13;3.80;74.90
44111;DHT22;29774;52.664;5.074;2023-04-03T00:18:39;3.80;74.90
44111;DHT22;29774;52.664;5.074;2023-04-03T00:21:05;3.80;75.10
44111;DHT22;29774;52.664;5.074;2023-04-03T00:23:31;3.70;75.40
44111;DHT22;29774;52.664;5.074;2023-04-03T00:25:57;3.70;75.70
44111;DHT22;29774;52.664;5.074;2023-04-03T00:28:23;3.80;75.80
44111;DHT22;29774;52.664;5.074;2023-04-03T00:30:49;3.80;75.80
44111;DHT22;29774;52.664;5.074;2023-04-03T00:33:15;3.80;75.90
44111;DHT22;29774;52.664;5.074;2023-04-03T00:35:41;3.70;76.10
44111;DHT22;29774;52.664;5.074;2023-04-03T00:38:07;3.70;76.40
44111;DHT22;29774;52.664;5.074;2023-04-03T00:40:39;3.70;76.50
44111;DHT22;29774;52.664;5.074;2023-04-03T00:43:18;3.70;76.70
44111;DHT22;29774;52.664;5.074;2023-04-03T00:45:47;3.70;76.90
44111;DHT22;29774;52.664;5.074;2023-04-03T00:48:17;3.70;77.00
44111;DHT22;29774;52.664;5.074;2023-04-03T00:50:44;3.70;77.00
44111;DHT22;29774;52.664;5.074;2023-04-03T00:53:21;3.70;77.20
44111;DHT22;29774;52.664;5.074;2023-04-03T00:55:49;3.60;77.30
44111;DHT22;29774;52.664;5.074;2023-04-03T00:58:17;3.60;77.70
44111;DHT22;29774;52.664;5.074;2023-04-03T01:00:48;3.60;77.90
44111;DHT22;29774;52.664;5.074;2023-04-03T01:03:14;3.60;78.00
44111;DHT22;29774;52.664;5.074;2023-04-03T01:05:40;3.70;78.10
44111;DHT22;29774;52.664;5.074;2023-04-03T01:08:06;3.60;78.10
44111;DHT22;29774;52.664;5.074;2023-04-03T01:10:32;3.50;78.20
44111;DHT22;29774;52.664;5.074;2023-04-03T01:12:59;3.60;78.30
44111;DHT22;29774;52.664;5.074;2023-04-03T01:15:27;3.50;78.40
44111;DHT22;29774;52.664;5.074;2023-04-03T01:17:57;3.50;78.40
44111;DHT22;29774;52.664;5.074;2023-04-03T01:28:05;3.40;78.80
44111;DHT22;29774;52.664;5.074;2023-04-03T01:30:34;3.40;79.00
44111;DHT22;29774;52.664;5.074;2023-04-03T01:33:01;3.30;79.10
44111;DHT22;29774;52.664;5.074;2023-04-03T01:35:27;3.30;79.20
44111;DHT22;29774;52.664;5.074;2023-04-03T01:37:52;3.30;79.50
44111;DHT22;29774;52.664;5.074;2023-04-03T01:40:19;3.30;79.50
44111;DHT22;29774;52.664;5.074;2023-04-03T01:42:45;3.30;79.70
44111;DHT22;29774;52.664;5.074;2023-04-03T01:45:10;3.30;79.60
44111;DHT22;29774;52.664;5.074;2023-04-03T01:47:36;3.30;79.70
44111;DHT22;29774;52.664;5.074;2023-04-03T01:50:02;3.30;79.70
44111;DHT22;29774;52.664;5.074;2023-04-03T01:52:28;3.20;79.70
44111;DHT22;29774;52.664;5.074;2023-04-03T01:54:53;3.20;79.60
44111;DHT22;29774;52.664;5.074;2023-04-03T01:57:19;3.20;79.60
44111;DHT22;29774;52.664;5.074;2023-04-03T01:59:44;3.20;79.70
44111;DHT22;29774;52.664;5.074;2023-04-03T02:02:10;3.10;79.60
44111;DHT22;29774;52.664;5.074;2023-04-03T02:04:37;3.20;79.60
44111;DHT22;29774;52.664;5.074;2023-04-03T02:07:03;3.20;79.70
44111;DHT22;29774;52.664;5.074;2023-04-03T02:09:29;3.20;79.70
44111;DHT22;29774;52.664;5.074;2023-04-03T02:11:54;3.10;79.70
44111;DHT22;29774;52.664;5.074;2023-04-03T02:14:20;3.10;79.90
44111;DHT22;29774;52.664;5.074;2023-04-03T02:16:47;3.10;80.00
44111;DHT22;29774;52.664;5.074;2023-04-03T02:19:12;3.10;80.10
44111;DHT22;29774;52.664;5.074;2023-04-03T02:21:38;3.00;80.20
44111;DHT22;29774;52.664;5.074;2023-04-03T02:24:04;3.00;80.40
44111;DHT22;29774;52.664;5.074;2023-04-03T02:26:30;3.10;80.50
44111;DHT22;29774;52.664;5.074;2023-04-03T02:28:56;3.00;80.40
44111;DHT22;29774;52.664;5.074;2023-04-03T02:31:22;3.00;80.50
44111;DHT22;29774;52.664;5.074;2023-04-03T02:33:47;3.00;80.60
44111;DHT22;29774;52.664;5.074;2023-04-03T02:36:13;2.90;80.80
44111;DHT22;29774;52.664;5.074;2023-04-03T02:38:38;2.90;80.90
44111;DHT22;29774;52.664;5.074;2023-04-03T02:41:07;2.90;80.80
44111;DHT22;29774;52.664;5.074;2023-04-03T02:43:33;2.90;80.90
44111;DHT22;29774;52.664;5.074;2023-04-03T02:45:59;2.90;80.90
44111;DHT22;29774;52.664;5.074;2023-04-03T02:48:25;2.90;81.00
44111;DHT22;29774;52.664;5.074;2023-04-03T02:50:50;2.80;81.00
44111;DHT22;29774;52.664;5.074;2023-04-03T02:53:16;2.80;81.10
44111;DHT22;29774;52.664;5.074;2023-04-03T02:55:42;2.80;81.30
44111;DHT22;29774;52.664;5.074;2023-04-03T02:58:08;2.80;81.30
44111;DHT22;29774;52.664;5.074;2023-04-03T03:00:34;2.80;81.40
44111;DHT22;29774;52.664;5.074;2023-04-03T03:03:00;2.80;81.40
44111;DHT22;29774;52.664;5.074;2023-04-03T03:05:26;2.70;81.60
44111;DHT22;29774;52.664;5.074;2023-04-03T03:07:52;2.70;81.60
44111;DHT22;29774;52.664;5.074;2023-04-03T03:10:18;2.70;81.80
44111;DHT22;29774;52.664;5.074;2023-04-03T03:12:45;2.60;82.00
44111;DHT22;29774;52.664;5.074;2023-04-03T03:15:11;2.60;82.20
44111;DHT22;29774;52.664;5.074;2023-04-03T03:17:36;2.60;82.40
44111;DHT22;29774;52.664;5.074;2023-04-03T03:20:03;2.60;82.50
44111;DHT22;29774;52.664;5.074;2023-04-03T03:22:29;2.60;82.50
44111;DHT22;29774;52.664;5.074;2023-04-03T03:24:55;2.60;82.40
44111;DHT22;29774;52.664;5.074;2023-04-03T03:27:21;2.60;82.70
44111;DHT22;29774;52.664;5.074;2023-04-03T03:29:46;2.60;82.70
44111;DHT22;29774;52.664;5.074;2023-04-03T03:32:12;2.50;82.80
44111;DHT22;29774;52.664;5.074;2023-04-03T03:34:38;2.50;83.00
44111;DHT22;29774;52.664;5.074;2023-04-03T03:37:03;2.50;83.00
44111;DHT22;29774;52.664;5.074;2023-04-03T03:39:29;2.50;83.10
44111;DHT22;29774;52.664;5.074;2023-04-03T03:41:55;2.50;83.20
44111;DHT22;29774;52.664;5.074;2023-04-03T03:44:21;2.50;83.50
44111;DHT22;29774;52.664;5.074;2023-04-03T03:46:46;2.40;83.50
44111;DHT22;29774;52.664;5.074;2023-04-03T03:49:12;2.40;83.40
44111;DHT22;29774;52.664;5.074;2023-04-03T03:51:38;2.50;83.50
44111;DHT22;29774;52.664;5.074;2023-04-03T03:54:04;2.40;83.50
44111;DHT22;29774;52.664;5.074;2023-04-03T03:56:30;2.40;83.60
44111;DHT22;29774;52.664;5.074;2023-04-03T03:58:56;2.40;83.60
44111;DHT22;29774;52.664;5.074;2023-04-03T04:01:23;2.40;83.70
44111;DHT22;29774;52.664;5.074;2023-04-03T04:03:49;2.40;83.70
44111;DHT22;29774;52.664;5.074;2023-04-03T04:06:15;2.40;83.80
44111;DHT22;29774;52.664;5.074;2023-04-03T04:08:41;2.30;83.80
44111;DHT22;29774;52.664;5.074;2023-04-03T04:11:07;2.30;83.80
44111;DHT22;29774;52.664;5.074;2023-04-03T04:13:33;2.30;83.90
44111;DHT22;29774;52.664;5.074;2023-04-03T04:15:59;2.20;84.20
44111;DHT22;29774;52.664;5.074;2023-04-03T04:18:24;2.20;84.30
44111;DHT22;29774;52.664;5.074;2023-04-03T04:20:50;2.20;84.40
44111;DHT22;29774;52.664;5.074;2023-04-03T04:23:17;2.20;84.40
44111;DHT22;29774;52.664;5.074;2023-04-03T04:25:47;2.20;84.40
44111;DHT22;29774;52.664;5.074;2023-04-03T04:28:13;2.20;84.50
44111;DHT22;29774;52.664;5.074;2023-04-03T04:30:38;2.20;84.60
44111;DHT22;29774;52.664;5.074;2023-04-03T04:33:04;2.20;84.60
44111;DHT22;29774;52.664;5.074;2023-04-03T04:35:30;2.10;84.60
44111;DHT22;29774;52.664;5.074;2023-04-03T04:37:56;2.10;84.70
44111;DHT22;29774;52.664;5.074;2023-04-03T04:40:22;2.10;84.80
44111;DHT22;29774;52.664;5.074;2023-04-03T04:42:47;2.10;84.70
44111;DHT22;29774;52.664;5.074;2023-04-03T04:45:13;2.00;84.60
44111;DHT22;29774;52.664;5.074;2023-04-03T04:47:40;2.10;84.70
44111;DHT22;29774;52.664;5.074;2023-04-03T04:50:06;2.10;84.80
44111;DHT22;29774;52.664;5.074;2023-04-03T04:52:32;2.00;84.90
44111;DHT22;29774;52.664;5.074;2023-04-03T04:54:58;2.10;85.00
44111;DHT22;29774;52.664;5.074;2023-04-03T04:57:23;2.10;84.90
44111;DHT22;29774;52.664;5.074;2023-04-03T04:59:49;2.10;85.10
44111;DHT22;29774;52.664;5.074;2023-04-03T05:02:15;2.10;85.20
44111;DHT22;29774;52.664;5.074;2023-04-03T05:04:40;2.10;85.20
44111;DHT22;29774;52.664;5.074;2023-04-03T05:07:06;2.10;85.10
44111;DHT22;29774;52.664;5.074;2023-04-03T05:09:32;2.10;85.20
44111;DHT22;29774;52.664;5.074;2023-04-03T05:11:57;2.00;85.20
44111;DHT22;29774;52.664;5.074;2023-04-03T05:14:23;2.10;85.30
44111;DHT22;29774;52.664;5.074;2023-04-03T05:16:49;2.00;85.30
44111;DHT22;29774;52.664;5.074;2023-04-03T05:19:18;2.10;85.40
44111;DHT22;29774;52.664;5.074;2023-04-03T05:21:43;2.10;85.40
44111;DHT22;29774;52.664;5.074;2023-04-03T05:24:09;2.10;85.40
44111;DHT22;29774;52.664;5.074;2023-04-03T05:26:35;2.00;85.40
44111;DHT22;29774;52.664;5.074;2023-04-03T05:29:01;2.00;85.30
44111;DHT22;29774;52.664;5.074;2023-04-03T05:31:26;2.00;85.50
44111;DHT22;29774;52.664;5.074;2023-04-03T05:33:55;2.10;85.50
44111;DHT22;29774;52.664;5.074;2023-04-03T05:36:21;2.10;85.40
44111;DHT22;29774;52.664;5.074;2023-04-03T05:38:47;2.20;85.50
44111;DHT22;29774;52.664;5.074;2023-04-03T05:41:14;2.20;85.60
44111;DHT22;29774;52.664;5.074;2023-04-03T05:43:40;2.30;85.70
44111;DHT22;29774;52.664;5.074;2023-04-03T05:46:14;2.40;85.70
44111;DHT22;29774;52.664;5.074;2023-04-03T05:48:40;2.50;85.70
44111;DHT22;29774;52.664;5.074;2023-04-03T05:51:07;2.60;85.30
44111;DHT22;29774;52.664;5.074;2023-04-03T05:53:35;2.70;84.90
44111;DHT22;29774;52.664;5.074;2023-04-03T05:56:03;2.80;84.70
44111;DHT22;29774;52.664;5.074;2023-04-03T05:58:29;3.00;84.30
44111;DHT22;29774;52.664;5.074;2023-04-03T06:00:54;3.20;83.70
44111;DHT22;29774;52.664;5.074;2023-04-03T06:03:20;3.30;83.20
44111;DHT22;29774;52.664;5.074;2023-04-03T06:05:46;3.40;82.80
44111;DHT22;29774;52.664;5.074;2023-04-03T06:08:12;3.60;82.40
44111;DHT22;29774;52.664;5.074;2023-04-03T06:10:38;3.70;82.00
44111;DHT22;29774;52.664;5.074;2023-04-03T06:13:04;3.80;81.30
44111;DHT22;29774;52.664;5.074;2023-04-03T06:15:30;3.90;80.90
44111;DHT22;29774;52.664;5.074;2023-04-03T06:17:55;4.00;80.60
44111;DHT22;29774;52.664;5.074;2023-04-03T06:20:21;4.20;80.20
44111;DHT22;29774;52.664;5.074;2023-04-03T06:22:47;4.20;79.70
44111;DHT22;29774;52.664;5.074;2023-04-03T06:25:13;4.30;79.20
44111;DHT22;29774;52.664;5.074;2023-04-03T06:27:39;4.40;78.70
44111;DHT22;29774;52.664;5.074;2023-04-03T06:30:06;4.50;78.10
44111;DHT22;29774;52.664;5.074;2023-04-03T06:32:32;4.60;77.60
44111;DHT22;29774;52.664;5.074;2023-04-03T06:34:57;4.70;77.50
44111;DHT22;29774;52.664;5.074;2023-04-03T06:37:24;4.80;77.30
44111;DHT22;29774;52.664;5.074;2023-04-03T06:39:54;4.90;76.80
44111;DHT22;29774;52.664;5.074;2023-04-03T06:42:20;4.90;76.50
44111;DHT22;29774;52.664;5.074;2023-04-03T06:44:46;5.10;76.20
44111;DHT22;29774;52.664;5.074;2023-04-03T06:47:14;5.20;75.70
44111;DHT22;29774;52.664;5.074;2023-04-03T06:49:39;5.20;75.20
44111;DHT22;29774;52.664;5.074;2023-04-03T06:52:05;5.30;75.10
44111;DHT22;29774;52.664;5.074;2023-04-03T06:54:31;5.50;74.60
44111;DHT22;29774;52.664;5.074;2023-04-03T06:56:57;5.50;73.50
44111;DHT22;29774;52.664;5.074;2023-04-03T06:59:23;5.50;73.30
44111;DHT22;29774;52.664;5.074;2023-04-03T07:01:49;5.70;72.80
44111;DHT22;29774;52.664;5.074;2023-04-03T07:04:15;5.70;72.40
44111;DHT22;29774;52.664;5.074;2023-04-03T07:06:40;5.70;72.10
44111;DHT22;29774;52.664;5.074;2023-04-03T07:09:08;5.80;71.70
44111;DHT22;29774;52.664;5.074;2023-04-03T07:11:34;6.00;71.40
44111;DHT22;29774;52.664;5.074;2023-04-03T07:14:00;6.10;70.80
44111;DHT22;29774;52.664;5.074;2023-04-03T07:16:25;6.20;69.80
44111;DHT22;29774;52.664;5.074;2023-04-03T07:18:51;6.10;69.90
44111;DHT22;29774;52.664;5.074;2023-04-03T07:21:16;6.20;70.00
44111;DHT22;29774;52.664;5.074;2023-04-03T07:23:42;6.30;69.90
44111;DHT22;29774;52.664;5.074;2023-04-03T07:26:08;6.40;69.00
44111;DHT22;29774;52.664;5.074;2023-04-03T07:28:34;6.60;67.90
44111;DHT22;29774;52.664;5.074;2023-04-03T07:31:02;6.60;67.50
44111;DHT22;29774;52.664;5.074;2023-04-03T07:33:29;6.70;67.10
44111;DHT22;29774;52.664;5.074;2023-04-03T07:35:55;6.70;67.10
44111;DHT22;29774;52.664;5.074;2023-04-03T07:38:21;6.80;66.70
44111;DHT22;29774;52.664;5.074;2023-04-03T07:40:48;6.80;66.50
44111;DHT22;29774;52.664;5.074;2023-04-03T07:43:14;7.00;66.30
44111;DHT22;29774;52.664;5.074;2023-04-03T07:45:41;7.30;65.20
44111;DHT22;29774;52.664;5.074;2023-04-03T07:48:06;7.40;64.60
44111;DHT22;29774;52.664;5.074;2023-04-03T07:50:32;7.40;63.70
44111;DHT22;29774;52.664;5.074;2023-04-03T07:52:58;7.40;63.60
44111;DHT22;29774;52.664;5.074;2023-04-03T07:55:24;7.40;63.40
44111;DHT22;29774;52.664;5.074;2023-04-03T07:57:50;7.40;62.80
44111;DHT22;29774;52.664;5.074;2023-04-03T08:00:17;7.50;63.20
44111;DHT22;29774;52.664;5.074;2023-04-03T08:02:43;7.60;62.30
44111;DHT22;29774;52.664;5.074;2023-04-03T08:05:10;7.60;62.40
44111;DHT22;29774;52.664;5.074;2023-04-03T08:07:37;7.60;62.50
44111;DHT22;29774;52.664;5.074;2023-04-03T08:10:03;7.80;62.80
44111;DHT22;29774;52.664;5.074;2023-04-03T08:12:29;7.90;60.80
44111;DHT22;29774;52.664;5.074;2023-04-03T08:14:55;8.00;61.00
44111;DHT22;29774;52.664;5.074;2023-04-03T08:17:21;8.20;60.20
44111;DHT22;29774;52.664;5.074;2023-04-03T08:19:47;8.40;59.90
44111;DHT22;29774;52.664;5.074;2023-04-03T08:22:12;8.70;59.50
44111;DHT22;29774;52.664;5.074;2023-04-03T08:24:38;8.90;58.10
44111;DHT22;29774;52.664;5.074;2023-04-03T08:27:03;8.90;56.80
44111;DHT22;29774;52.664;5.074;2023-04-03T08:29:29;8.90;56.70
44111;DHT22;29774;52.664;5.074;2023-04-03T08:31:55;8.80;57.30
44111;DHT22;29774;52.664;5.074;2023-04-03T08:34:21;8.90;55.90
44111;DHT22;29774;52.664;5.074;2023-04-03T08:36:46;9.10;55.60
44111;DHT22;29774;52.664;5.074;2023-04-03T08:39:12;9.00;55.10
44111;DHT22;29774;52.664;5.074;2023-04-03T08:41:43;9.30;53.80
44111;DHT22;29774;52.664;5.074;2023-04-03T08:47:30;9.60;54.30
44111;DHT22;29774;52.664;5.074;2023-04-03T08:50:08;9.70;53.30
44111;DHT22;29774;52.664;5.074;2023-04-03T08:52:52;9.70;52.90
44111;DHT22;29774;52.664;5.074;2023-04-03T08:55:25;9.70;52.00
44111;DHT22;29774;52.664;5.074;2023-04-03T09:00:30;10.00;50.80
44111;DHT22;29774;52.664;5.074;2023-04-03T09:02:58;9.90;50.00
44111;DHT22;29774;52.664;5.074;2023-04-03T09:08:03;10.40;47.00
44111;DHT22;29774;52.664;5.074;2023-04-03T09:10:33;10.40;46.50
44111;DHT22;29774;52.664;5.074;2023-04-03T09:13:30;10.50;46.30
44111;DHT22;29774;52.664;5.074;2023-04-03T09:15:56;10.40;46.00
44111;DHT22;29774;52.664;5.074;2023-04-03T09:18:35;10.40;45.50
44111;DHT22;29774;52.664;5.074;2023-04-03T09:21:18;10.50;43.30
44111;DHT22;29774;52.664;5.074;2023-04-03T09:23:51;10.50;44.90
44111;DHT22;29774;52.664;5.074;2023-04-03T09:26:46;10.60;44.60
44111;DHT22;29774;52.664;5.074;2023-04-03T09:29:22;10.50;43.20
44111;DHT22;29774;52.664;5.074;2023-04-03T09:31:50;10.70;43.00
44111;DHT22;29774;52.664;5.074;2023-04-03T09:34:26;10.70;41.30
44111;DHT22;29774;52.664;5.074;2023-04-03T09:36:57;10.70;41.00
44111;DHT22;29774;52.664;5.074;2023-04-03T09:39:28;10.70;41.60
44111;DHT22;29774;52.664;5.074;2023-04-03T09:42:05;10.80;42.10
44111;DHT22;29774;52.664;5.074;2023-04-03T09:44:37;10.90;39.20
44111;DHT22;29774;52.664;5.074;2023-04-03T09:47:35;11.00;39.90
44111;DHT22;29774;52.664;5.074;2023-04-03T09:52:45;11.00;42.60
44111;DHT22;29774;52.664;5.074;2023-04-03T09:55:20;11.10;42.20
44111;DHT22;29774;52.664;5.074;2023-04-03T09:57:53;11.30;40.10
44111;DHT22;29774;52.664;5.074;2023-04-03T10:00:25;11.20;40.00
44111;DHT22;29774;52.664;5.074;2023-04-03T10:02:55;11.40;40.90
44111;DHT22;29774;52.664;5.074;2023-04-03T10:05:40;11.70;41.00
44111;DHT22;29774;52.664;5.074;2023-04-03T10:10:43;11.40;38.40
44111;DHT22;29774;52.664;5.074;2023-04-03T10:13:12;11.40;38.30
44111;DHT22;29774;52.664;5.074;2023-04-03T10:16:01;11.40;37.60
44111;DHT22;29774;52.664;5.074;2023-04-03T10:18:39;11.60;37.50
44111;DHT22;29774;52.664;5.074;2023-04-03T10:24:49;12.10;36.60
44111;DHT22;29774;52.664;5.074;2023-04-03T10:33:18;12.40;35.30
44111;DHT22;29774;52.664;5.074;2023-04-03T10:36:00;13.00;35.10
44111;DHT22;29774;52.664;5.074;2023-04-03T10:41:46;13.50;33.50
44111;DHT22;29774;52.664;5.074;2023-04-03T10:47:21;13.00;33.20
44111;DHT22;29774;52.664;5.074;2023-04-03T10:55:42;13.20;32.60
44111;DHT22;29774;52.664;5.074;2023-04-03T10:58:37;12.90;33.30
44111;DHT22;29774;52.664;5.074;2023-04-03T11:01:09;13.00;33.40
44111;DHT22;29774;52.664;5.074;2023-04-03T11:03:48;13.30;33.20
44111;DHT22;29774;52.664;5.074;2023-04-03T11:06:16;13.20;32.40
44111;DHT22;29774;52.664;5.074;2023-04-03T11:11:44;13.20;32.40
44111;DHT22;29774;52.664;5.074;2023-04-03T11:16:55;13.10;31.10
44111;DHT22;29774;52.664;5.074;2023-04-03T11:19:42;12.80;32.30
44111;DHT22;29774;52.664;5.074;2023-04-03T11:25:06;13.10;31.60
44111;DHT22;29774;52.664;5.074;2023-04-03T11:27:57;13.20;30.90
44111;DHT22;29774;52.664;5.074;2023-04-03T11:35:37;13.20;31.20
44111;DHT22;29774;52.664;5.074;2023-04-03T11:38:17;13.20;30.20
44111;DHT22;29774;52.664;5.074;2023-04-03T11:40:44;13.10;29.30
44111;DHT22;29774;52.664;5.074;2023-04-03T11:43:40;13.10;29.20
44111;DHT22;29774;52.664;5.074;2023-04-03T11:46:07;13.00;30.10
44111;DHT22;29774;52.664;5.074;2023-04-03T11:53:41;13.20;30.70
44111;DHT22;29774;52.664;5.074;2023-04-03T12:04:15;13.40;29.00
44111;DHT22;29774;52.664;5.074;2023-04-03T12:06:42;13.20;29.80
44111;DHT22;29774;52.664;5.074;2023-04-03T12:09:29;12.90;30.10
44111;DHT22;29774;52.664;5.074;2023-04-03T12:11:57;12.80;30.50
44111;DHT22;29774;52.664;5.074;2023-04-03T12:14:25;12.50;30.60
44111;DHT22;29774;52.664;5.074;2023-04-03T12:16:56;12.60;31.50
44111;DHT22;29774;52.664;5.074;2023-04-03T12:19:36;12.80;32.00
44111;DHT22;29774;52.664;5.074;2023-04-03T12:22:09;13.20;31.10
44111;DHT22;29774;52.664;5.074;2023-04-03T12:24:40;13.00;30.60
44111;DHT22;29774;52.664;5.074;2023-04-03T12:30:25;12.90;30.90
44111;DHT22;29774;52.664;5.074;2023-04-03T12:35:57;12.80;30.60
44111;DHT22;29774;52.664;5.074;2023-04-03T12:38:58;12.80;31.40
44111;DHT22;29774;52.664;5.074;2023-04-03T12:46:54;12.90;29.90
44111;DHT22;29774;52.664;5.074;2023-04-03T12:49:31;12.30;31.30
44111;DHT22;29774;52.664;5.074;2023-04-03T12:51:58;12.20;32.10
44111;DHT22;29774;52.664;5.074;2023-04-03T12:54:42;12.20;32.30
44111;DHT22;29774;52.664;5.074;2023-04-03T12:57:12;12.50;31.40
44111;DHT22;29774;52.664;5.074;2023-04-03T12:59:37;12.20;31.10
44111;DHT22;29774;52.664;5.074;2023-04-03T13:02:16;12.20;31.50
44111;DHT22;29774;52.664;5.074;2023-04-03T13:04:43;12.20;32.80
44111;DHT22;29774;52.664;5.074;2023-04-03T13:07:23;12.70;31.80
44111;DHT22;29774;52.664;5.074;2023-04-03T13:10:23;12.50;32.00
44111;DHT22;29774;52.664;5.074;2023-04-03T13:12:54;11.70;32.80
44111;DHT22;29774;52.664;5.074;2023-04-03T13:15:30;11.00;33.60
44111;DHT22;29774;52.664;5.074;2023-04-03T13:17:56;10.70;35.60
44111;DHT22;29774;52.664;5.074;2023-04-03T13:20:28;10.40;36.10
44111;DHT22;29774;52.664;5.074;2023-04-03T13:23:01;10.20;36.70
44111;DHT22;29774;52.664;5.074;2023-04-03T13:25:30;9.90;37.40
44111;DHT22;29774;52.664;5.074;2023-04-03T13:27:58;9.50;38.50
44111;DHT22;29774;52.664;5.074;2023-04-03T13:30:31;9.20;38.90
44111;DHT22;29774;52.664;5.074;2023-04-03T13:33:00;9.30;39.60
44111;DHT22;29774;52.664;5.074;2023-04-03T13:37:59;9.10;40.70
44111;DHT22;29774;52.664;5.074;2023-04-03T13:40:26;9.00;40.70
44111;DHT22;29774;52.664;5.074;2023-04-03T13:43:28;9.00;41.40
44111;DHT22;29774;52.664;5.074;2023-04-03T13:48:45;8.70;40.30
44111;DHT22;29774;52.664;5.074;2023-04-03T13:54:16;8.70;41.00
44111;DHT22;29774;52.664;5.074;2023-04-03T13:56:43;8.70;41.30
44111;DHT22;29774;52.664;5.074;2023-04-03T14:04:20;8.60;41.20
44111;DHT22;29774;52.664;5.074;2023-04-03T14:06:47;8.40;41.40
44111;DHT22;29774;52.664;5.074;2023-04-03T14:09:15;8.50;42.50
44111;DHT22;29774;52.664;5.074;2023-04-03T14:11:41;8.50;42.90
44111;DHT22;29774;52.664;5.074;2023-04-03T14:14:19;8.50;42.00
44111;DHT22;29774;52.664;5.074;2023-04-03T14:16:49;8.40;43.00
44111;DHT22;29774;52.664;5.074;2023-04-03T14:19:26;8.40;42.60
44111;DHT22;29774;52.664;5.074;2023-04-03T14:21:53;8.40;42.60
44111;DHT22;29774;52.664;5.074;2023-04-03T14:24:20;8.30;41.60
44111;DHT22;29774;52.664;5.074;2023-04-03T14:26:48;8.30;41.80
44111;DHT22;29774;52.664;5.074;2023-04-03T14:29:15;8.40;43.00
44111;DHT22;29774;52.664;5.074;2023-04-03T14:31:43;8.40;42.10
44111;DHT22;29774;52.664;5.074;2023-04-03T14:34:11;8.40;42.10
44111;DHT22;29774;52.664;5.074;2023-04-03T14:36:37;8.30;41.40
44111;DHT22;29774;52.664;5.074;2023-04-03T14:39:04;8.30;41.90
44111;DHT22;29774;52.664;5.074;2023-04-03T14:41:30;8.30;42.00
44111;DHT22;29774;52.664;5.074;2023-04-03T14:43:56;8.30;42.50
44111;DHT22;29774;52.664;5.074;2023-04-03T14:46:28;8.30;43.60
44111;DHT22;29774;52.664;5.074;2023-04-03T14:48:55;8.40;42.30
44111;DHT22;29774;52.664;5.074;2023-04-03T14:51:20;8.20;42.00
44111;DHT22;29774;52.664;5.074;2023-04-03T14:53:46;8.20;42.30
44111;DHT22;29774;52.664;5.074;2023-04-03T14:56:18;8.30;41.80
44111;DHT22;29774;52.664;5.074;2023-04-03T14:58:47;8.20;42.60
44111;DHT22;29774;52.664;5.074;2023-04-03T15:01:17;8.20;40.70
44111;DHT22;29774;52.664;5.074;2023-04-03T15:03:42;8.20;41.90
44111;DHT22;29774;52.664;5.074;2023-04-03T15:06:12;8.30;41.20
44111;DHT22;29774;52.664;5.074;2023-04-03T15:08:39;8.30;42.50
44111;DHT22;29774;52.664;5.074;2023-04-03T15:11:07;8.20;42.10
44111;DHT22;29774;52.664;5.074;2023-04-03T15:13:32;8.20;41.40
44111;DHT22;29774;52.664;5.074;2023-04-03T15:15:58;8.20;41.70
44111;DHT22;29774;52.664;5.074;2023-04-03T15:18:26;8.20;42.10
44111;DHT22;29774;52.664;5.074;2023-04-03T15:20:53;8.10;42.50
44111;DHT22;29774;52.664;5.074;2023-04-03T15:23:19;8.20;42.80
44111;DHT22;29774;52.664;5.074;2023-04-03T15:25:47;8.20;43.00
44111;DHT22;29774;52.664;5.074;2023-04-03T15:28:30;8.20;42.90
44111;DHT22;29774;52.664;5.074;2023-04-03T15:30:56;8.10;41.90
44111;DHT22;29774;52.664;5.074;2023-04-03T15:33:22;8.00;41.50
44111;DHT22;29774;52.664;5.074;2023-04-03T15:35:48;8.00;43.20
44111;DHT22;29774;52.664;5.074;2023-04-03T15:38:13;8.10;43.30
44111;DHT22;29774;52.664;5.074;2023-04-03T15:40:40;8.10;43.60
44111;DHT22;29774;52.664;5.074;2023-04-03T15:43:06;8.10;42.60
44111;DHT22;29774;52.664;5.074;2023-04-03T15:45:34;8.10;42.60
44111;DHT22;29774;52.664;5.074;2023-04-03T15:48:01;8.00;42.80
44111;DHT22;29774;52.664;5.074;2023-04-03T15:50:27;8.00;43.80
44111;DHT22;29774;52.664;5.074;2023-04-03T15:52:53;8.00;42.70
44111;DHT22;29774;52.664;5.074;2023-04-03T15:55:24;8.00;43.60
44111;DHT22;29774;52.664;5.074;2023-04-03T15:57:50;8.00;43.90
44111;DHT22;29774;52.664;5.074;2023-04-03T16:00:16;8.00;44.20
44111;DHT22;29774;52.664;5.074;2023-04-03T16:02:44;8.00;43.80
44111;DHT22;29774;52.664;5.074;2023-04-03T16:05:11;8.00;44.00
44111;DHT22;29774;52.664;5.074;2023-04-03T16:07:40;8.00;43.60
44111;DHT22;29774;52.664;5.074;2023-04-03T16:10:07;7.90;43.90
44111;DHT22;29774;52.664;5.074;2023-04-03T16:12:34;7.90;43.90
44111;DHT22;29774;52.664;5.074;2023-04-03T16:14:59;7.90;44.50
44111;DHT22;29774;52.664;5.074;2023-04-03T16:17:26;7.90;45.50
44111;DHT22;29774;52.664;5.074;2023-04-03T16:19:53;7.90;45.10
44111;DHT22;29774;52.664;5.074;2023-04-03T16:22:19;7.90;44.80
44111;DHT22;29774;52.664;5.074;2023-04-03T16:24:45;7.90;44.40
44111;DHT22;29774;52.664;5.074;2023-04-03T16:27:10;7.90;44.40
44111;DHT22;29774;52.664;5.074;2023-04-03T16:29:36;7.80;44.30
44111;DHT22;29774;52.664;5.074;2023-04-03T16:32:02;7.80;44.90
44111;DHT22;29774;52.664;5.074;2023-04-03T16:34:28;7.80;45.40
44111;DHT22;29774;52.664;5.074;2023-04-03T16:36:56;7.80;44.90
44111;DHT22;29774;52.664;5.074;2023-04-03T16:39:21;7.80;44.70
44111;DHT22;29774;52.664;5.074;2023-04-03T16:41:47;7.80;45.50
44111;DHT22;29774;52.664;5.074;2023-04-03T16:44:12;7.70;46.10
44111;DHT22;29774;52.664;5.074;2023-04-03T16:46:39;7.80;46.80
44111;DHT22;29774;52.664;5.074;2023-04-03T16:49:04;7.80;47.20
44111;DHT22;29774;52.664;5.074;2023-04-03T16:51:31;7.80;47.40
44111;DHT22;29774;52.664;5.074;2023-04-03T16:53:57;7.80;45.90
44111;DHT22;29774;52.664;5.074;2023-04-03T16:56:23;7.80;45.20
44111;DHT22;29774;52.664;5.074;2023-04-03T16:58:52;7.80;45.00
44111;DHT22;29774;52.664;5.074;2023-04-03T17:01:21;7.80;46.20
44111;DHT22;29774;52.664;5.074;2023-04-03T17:03:46;7.70;45.30
44111;DHT22;29774;52.664;5.074;2023-04-03T17:06:16;7.70;45.60
44111;DHT22;29774;52.664;5.074;2023-04-03T17:08:43;7.70;45.90
44111;DHT22;29774;52.664;5.074;2023-04-03T17:11:09;7.70;46.40
44111;DHT22;29774;52.664;5.074;2023-04-03T17:13:35;7.60;45.70
44111;DHT22;29774;52.664;5.074;2023-04-03T17:16:02;7.70;45.90
44111;DHT22;29774;52.664;5.074;2023-04-03T17:18:30;7.60;46.50
44111;DHT22;29774;52.664;5.074;2023-04-03T17:20:56;7.60;46.60
44111;DHT22;29774;52.664;5.074;2023-04-03T17:23:24;7.50;46.70
44111;DHT22;29774;52.664;5.074;2023-04-03T17:25:50;7.50;46.70